sensor_id;sensor_type;location;lat;lon;timestamp;pressure;altitude;pressure_sealevel;temperature;humidity
22389;BME280;11362;48.102;11.620;2023-03-21T00:00:32;95428.63;;;23.70;37.09
22389;BME280;11362;48.102;11.620;2023-03-21T00:02:57;95417.09;;;23.72;36.99
22389;BME280;11362;48.102;11.620;2023-03-21T00:05:22;95415.94;;;23.69;37.05
22389;BME280;11362;48.102;11.620;2023-03-21T00:07:48;95416.34;;;23.71;37.06
22389;BME280;11362;48.102;11.620;2023-03-21T00:10:13;95417.53;;;23.70;36.96
22389;BME280;11362;48.102;11.620;2023-03-21T00:12:38;95403.66;;;23.70;36.85
22389;BME280;11362;48.102;11.620;2023-03-21T00:15:06;95409.22;;;23.70;36.87
22389;BME280;11362;48.102;11.620;2023-03-21T00:17:32;95408.81;;;23.68;36.84
22389;BME280;11362;48.102;11.620;2023-03-21T00:20:01;95404.84;;;23.69;36.84
22389;BME280;11362;48.102;11.620;2023-03-21T00:22:27;95401.72;;;23.67;36.85
22389;BME280;11362;48.102;11.620;2023-03-21T00:24:53;95399.34;;;23.66;36.79
22389;BME280;11362;48.102;11.620;2023-03-21T00:27:19;95407.25;;;23.67;36.80
22389;BME280;11362;48.102;11.620;2023-03-21T00:29:45;95398.56;;;23.65;36.59
22389;BME280;11362;48.102;11.620;2023-03-21T00:32:11;95396.19;;;23.64;37.10
22389;BME280;11362;48.102;11.620;2023-03-21T00:34:36;95394.59;;;23.66;36.80
22389;BME280;11362;48.102;11.620;2023-03-21T00:37:01;95390.25;;;23.65;36.73
22389;BME280;11362;48.102;11.620;2023-03-21T00:39:27;95388.69;;;23.64;36.63
22389;BME280;11362;48.102;11.620;2023-03-21T00:41:52;95383.13;;;23.64;36.58
22389;BME280;11362;48.102;11.620;2023-03-21T00:44:17;95376.44;;;23.62;36.69
22389;BME280;11362;48.102;11.620;2023-03-21T00:46:42;95381.97;;;23.62;36.68
22389;BME280;11362;48.102;11.620;2023-03-21T00:49:08;95380.41;;;23.61;36.75
22389;BME280;11362;48.102;11.620;2023-03-21T00:51:33;95379.59;;;23.60;36.62
22389;BME280;11362;48.102;11.620;2023-03-21T00:53:58;95385.16;;;23.60;36.67
22389;BME280;11362;48.102;11.620;2023-03-21T00:56:24;95373.28;;;23.60;36.68
22389;BME280;11362;48.102;11.620;2023-03-21T00:58:49;95369.31;;;23.61;36.50
22389;BME280;11362;48.102;11.620;2023-03-21T01:01:14;95374.06;;;23.60;36.56
22389;BME280;11362;48.102;11.620;2023-03-21T01:03:40;95372.50;;;23.59;36.63
22389;BME280;11362;48.102;11.620;2023-03-21T01:06:05;95370.53;;;23.60;36.62
22389;BME280;11362;48.102;11.620;2023-03-21T01:08:35;95370.94;;;23.58;36.53
22389;BME280;11362;48.102;11.620;2023-03-21T01:11:04;95366.94;;;23.59;36.39
22389;BME280;11362;48.102;11.620;2023-03-21T01:13:30;95366.94;;;23.59;36.48
22389;BME280;11362;48.102;11.620;2023-03-21T01:15:57;95362.59;;;23.58;36.47
22389;BME280;11362;48.102;11.620;2023-03-21T01:18:24;95366.94;;;23.59;36.48
22389;BME280;11362;48.102;11.620;2023-03-21T01:20:50;95359.84;;;23.58;36.42
22389;BME280;11362;48.102;11.620;2023-03-21T01:23:16;95357.06;;;23.58;36.44
22389;BME280;11362;48.102;11.620;2023-03-21T01:25:41;95358.25;;;23.57;36.50
22389;BME280;11362;48.102;11.620;2023-03-21T01:28:07;95353.50;;;23.58;36.40
22389;BME280;11362;48.102;11.620;2023-03-21T01:30:33;95365.38;;;23.58;36.33
22389;BME280;11362;48.102;11.620;2023-03-21T01:32:59;95356.25;;;23.58;36.31
22389;BME280;11362;48.102;11.620;2023-03-21T01:35:24;95357.47;;;23.57;36.24
22389;BME280;11362;48.102;11.620;2023-03-21T01:37:49;95344.41;;;23.57;36.25
22389;BME280;11362;48.102;11.620;2023-03-21T01:40:17;95351.16;;;23.56;36.17
22389;BME280;11362;48.102;11.620;2023-03-21T01:42:43;95350.72;;;23.58;36.39
22389;BME280;11362;48.102;11.620;2023-03-21T01:48:12;95339.25;;;23.56;36.27
22389;BME280;11362;48.102;11.620;2023-03-21T01:50:39;95338.06;;;23.57;36.16
22389;BME280;11362;48.102;11.620;2023-03-21T01:53:05;95330.94;;;23.56;36.13
22389;BME280;11362;48.102;11.620;2023-03-21T01:55:30;95334.50;;;23.56;36.08
22389;BME280;11362;48.102;11.620;2023-03-21T01:57:56;95327.38;;;23.55;36.30
22389;BME280;11362;48.102;11.620;2023-03-21T02:00:24;95329.38;;;23.55;36.30
22389;BME280;11362;48.102;11.620;2023-03-21T02:02:50;95326.59;;;23.55;36.13
22389;BME280;11362;48.102;11.620;2023-03-21T02:05:25;95328.97;;;23.56;36.22
22389;BME280;11362;48.102;11.620;2023-03-21T02:07:51;95326.97;;;23.57;36.27
22389;BME280;11362;48.102;11.620;2023-03-21T02:10:17;95326.59;;;23.55;36.05
22389;BME280;11362;48.102;11.620;2023-03-21T02:12:42;95324.59;;;23.55;36.21
22389;BME280;11362;48.102;11.620;2023-03-21T02:15:08;95317.06;;;23.56;36.02
22389;BME280;11362;48.102;11.620;2023-03-21T02:17:59;95315.50;;;23.55;36.13
22389;BME280;11362;48.102;11.620;2023-03-21T02:23:27;95321.81;;;23.55;36.06
22389;BME280;11362;48.102;11.620;2023-03-21T02:26:24;95330.94;;;23.56;36.02
22389;BME280;11362;48.102;11.620;2023-03-21T02:29:13;95329.38;;;23.55;36.03
22389;BME280;11362;48.102;11.620;2023-03-21T02:37:23;95337.69;;;23.55;35.94
22389;BME280;11362;48.102;11.620;2023-03-21T02:40:10;95335.69;;;23.55;35.88
22389;BME280;11362;48.102;11.620;2023-03-21T02:43:00;95332.91;;;23.55;35.85
22389;BME280;11362;48.102;11.620;2023-03-21T02:45:33;95329.38;;;23.55;35.84
22389;BME280;11362;48.102;11.620;2023-03-21T02:48:06;95325.81;;;23.54;35.78
22389;BME280;11362;48.102;11.620;2023-03-21T02:50:51;95332.56;;;23.53;36.04
22389;BME280;11362;48.102;11.620;2023-03-21T02:53:20;95327.81;;;23.54;35.75
22389;BME280;11362;48.102;11.620;2023-03-21T02:55:48;95321.06;;;23.55;35.77
22389;BME280;11362;48.102;11.620;2023-03-21T02:58:18;95324.25;;;23.53;35.74
22389;BME280;11362;48.102;11.620;2023-03-21T03:00:44;95322.25;;;23.54;35.76
22389;BME280;11362;48.102;11.620;2023-03-21T03:03:13;95322.66;;;23.52;35.68
22389;BME280;11362;48.102;11.620;2023-03-21T03:05:45;95328.56;;;23.54;35.55
22389;BME280;11362;48.102;11.620;2023-03-21T03:08:25;95328.22;;;23.52;35.72
22389;BME280;11362;48.102;11.620;2023-03-21T03:16:16;95318.69;;;23.53;35.72
22389;BME280;11362;48.102;11.620;2023-03-21T03:18:55;95310.38;;;23.53;35.79
22389;BME280;11362;48.102;11.620;2023-03-21T03:24:34;95321.91;;;23.52;35.76
22389;BME280;11362;48.102;11.620;2023-03-21T03:27:09;95312.75;;;23.55;35.58
22389;BME280;11362;48.102;11.620;2023-03-21T03:29:39;95314.34;;;23.52;35.71
22389;BME280;11362;48.102;11.620;2023-03-21T03:32:16;95323.47;;;23.53;35.73
22389;BME280;11362;48.102;11.620;2023-03-21T03:34:47;95310.81;;;23.52;35.81
22389;BME280;11362;48.102;11.620;2023-03-21T03:37:18;95310.00;;;23.51;35.76
22389;BME280;11362;48.102;11.620;2023-03-21T03:39:50;95302.91;;;23.50;35.71
22389;BME280;11362;48.102;11.620;2023-03-21T03:42:27;95310.00;;;23.51;35.79
22389;BME280;11362;48.102;11.620;2023-03-21T03:44:54;95305.25;;;23.52;35.72
22389;BME280;11362;48.102;11.620;2023-03-21T03:50:26;95302.84;;;23.54;35.80
22389;BME280;11362;48.102;11.620;2023-03-21T03:55:31;95300.84;;;23.54;35.79
22389;BME280;11362;48.102;11.620;2023-03-21T03:57:57;95315.50;;;23.55;35.69
22389;BME280;11362;48.102;11.620;2023-03-21T04:00:22;95312.78;;;23.51;35.58
22389;BME280;11362;48.102;11.620;2023-03-21T04:02:47;95306.84;;;23.53;35.84
22389;BME280;11362;48.102;11.620;2023-03-21T04:05:13;95313.16;;;23.53;35.75
22389;BME280;11362;48.102;11.620;2023-03-21T04:07:38;95312.75;;;23.55;35.61
22389;BME280;11362;48.102;11.620;2023-03-21T04:10:04;95315.50;;;23.55;35.49
22389;BME280;11362;48.102;11.620;2023-03-21T04:12:29;95302.06;;;23.53;35.80
22389;BME280;11362;48.102;11.620;2023-03-21T04:14:54;95312.38;;;23.53;35.71
22389;BME280;11362;48.102;11.620;2023-03-21T04:17:20;95299.66;;;23.55;35.70
22389;BME280;11362;48.102;11.620;2023-03-21T04:19:45;95304.78;;;23.57;35.67
22389;BME280;11362;48.102;11.620;2023-03-21T04:22:11;95305.19;;;23.55;35.69
22389;BME280;11362;48.102;11.620;2023-03-21T04:24:38;95305.19;;;23.55;35.92
22389;BME280;11362;48.102;11.620;2023-03-21T04:27:03;95309.16;;;23.54;35.73
22389;BME280;11362;48.102;11.620;2023-03-21T04:29:29;95300.84;;;23.54;35.79
22389;BME280;11362;48.102;11.620;2023-03-21T04:31:55;95294.09;;;23.55;35.68
22389;BME280;11362;48.102;11.620;2023-03-21T04:34:20;95300.44;;;23.56;35.62
22389;BME280;11362;48.102;11.620;2023-03-21T04:36:46;95298.06;;;23.54;35.75
22389;BME280;11362;48.102;11.620;2023-03-21T04:39:11;95296.50;;;23.53;35.78
22389;BME280;11362;48.102;11.620;2023-03-21T04:41:41;95297.31;;;23.54;35.65
22389;BME280;11362;48.102;11.620;2023-03-21T04:44:07;95298.50;;;23.53;35.76
22389;BME280;11362;48.102;11.620;2023-03-21T04:46:34;95298.50;;;23.53;35.67
22389;BME280;11362;48.102;11.620;2023-03-21T04:48:59;95291.41;;;23.52;35.73
22389;BME280;11362;48.102;11.620;2023-03-21T04:51:25;95295.31;;;23.54;35.54
22389;BME280;11362;48.102;11.620;2023-03-21T04:53:50;95290.56;;;23.55;35.78
22389;BME280;11362;48.102;11.620;2023-03-21T04:56:15;95288.19;;;23.53;35.82
22389;BME280;11362;48.102;11.620;2023-03-21T04:58:41;95285.06;;;23.51;35.58
22389;BME280;11362;48.102;11.620;2023-03-21T05:01:07;95280.66;;;23.54;35.50
22389;BME280;11362;48.102;11.620;2023-03-21T05:03:32;95290.97;;;23.53;35.67
22389;BME280;11362;48.102;11.620;2023-03-21T05:06:01;95295.69;;;23.56;35.59
22389;BME280;11362;48.102;11.620;2023-03-21T05:08:27;95289.75;;;23.54;35.41
22389;BME280;11362;48.102;11.620;2023-03-21T05:10:52;95289.75;;;23.54;35.36
22389;BME280;11362;48.102;11.620;2023-03-21T05:13:17;95284.66;;;23.53;35.87
22389;BME280;11362;48.102;11.620;2023-03-21T05:15:43;95287.44;;;23.53;35.64
22389;BME280;11362;48.102;11.620;2023-03-21T05:18:08;95294.53;;;23.54;35.62
22389;BME280;11362;48.102;11.620;2023-03-21T05:20:34;95294.09;;;23.55;35.53
22389;BME280;11362;48.102;11.620;2023-03-21T05:22:59;95295.31;;;23.54;35.69
22389;BME280;11362;48.102;11.620;2023-03-21T05:25:24;95293.34;;;23.55;35.59
22389;BME280;11362;48.102;11.620;2023-03-21T05:27:49;95293.34;;;23.55;35.63
22389;BME280;11362;48.102;11.620;2023-03-21T05:30:16;95285.78;;;23.55;35.64
22389;BME280;11362;48.102;11.620;2023-03-21T05:32:42;95289.41;;;23.52;35.48
22389;BME280;11362;48.102;11.620;2023-03-21T05:35:08;95287.00;;;23.54;35.69
22389;BME280;11362;48.102;11.620;2023-03-21T05:37:33;95287.00;;;23.54;35.49
22389;BME280;11362;48.102;11.620;2023-03-21T05:39:59;95282.25;;;23.55;35.52
22389;BME280;11362;48.102;11.620;2023-03-21T05:42:24;95284.59;;;23.56;35.56
22389;BME280;11362;48.102;11.620;2023-03-21T05:44:50;95294.09;;;23.55;35.48
22389;BME280;11362;48.102;11.620;2023-03-21T05:47:16;95289.34;;;23.56;35.64
22389;BME280;11362;48.102;11.620;2023-03-21T05:49:42;95295.69;;;23.56;35.41
22389;BME280;11362;48.102;11.620;2023-03-21T05:52:08;95291.72;;;23.57;35.53
22389;BME280;11362;48.102;11.620;2023-03-21T05:54:33;95298.47;;;23.56;35.68
22389;BME280;11362;48.102;11.620;2023-03-21T05:56:59;95298.47;;;23.56;35.42
22389;BME280;11362;48.102;11.620;2023-03-21T05:59:24;95299.66;;;23.55;35.31
22389;BME280;11362;48.102;11.620;2023-03-21T06:01:50;95305.19;;;23.55;35.53
22389;BME280;11362;48.102;11.620;2023-03-21T06:04:15;95301.25;;;23.56;35.58
22389;BME280;11362;48.102;11.620;2023-03-21T06:06:40;95306.78;;;23.56;35.40
22389;BME280;11362;48.102;11.620;2023-03-21T06:09:06;95310.75;;;23.55;35.50
22389;BME280;11362;48.102;11.620;2023-03-21T06:11:34;95305.19;;;23.55;35.40
22389;BME280;11362;48.102;11.620;2023-03-21T06:14:00;95312.34;;;23.56;35.57
22389;BME280;11362;48.102;11.620;2023-03-21T06:16:25;95302.81;;;23.57;35.85
22389;BME280;11362;48.102;11.620;2023-03-21T06:18:50;95322.59;;;23.59;36.51
22389;BME280;11362;48.102;11.620;2023-03-21T06:21:16;95309.06;;;23.61;36.68
22389;BME280;11362;48.102;11.620;2023-03-21T06:23:41;95309.03;;;23.65;37.15
22389;BME280;11362;48.102;11.620;2023-03-21T06:26:07;95311.41;;;23.66;37.38
22389;BME280;11362;48.102;11.620;2023-03-21T06:28:32;95316.09;;;23.69;37.88
22389;BME280;11362;48.102;11.620;2023-03-21T06:30:58;95319.25;;;23.71;38.21
22389;BME280;11362;48.102;11.620;2023-03-21T06:33:24;95324.72;;;23.78;38.05
22389;BME280;11362;48.102;11.620;2023-03-21T06:35:53;95322.31;;;23.80;38.32
22389;BME280;11362;48.102;11.620;2023-03-21T06:38:19;95320.38;;;23.77;38.11
22389;BME280;11362;48.102;11.620;2023-03-21T06:40:45;95322.31;;;23.80;38.40
22389;BME280;11362;48.102;11.620;2023-03-21T06:43:11;95325.06;;;23.80;38.49
22389;BME280;11362;48.102;11.620;2023-03-21T06:45:36;95316.75;;;23.80;38.19
22389;BME280;11362;48.102;11.620;2023-03-21T06:48:01;95329.41;;;23.81;38.40
22389;BME280;11362;48.102;11.620;2023-03-21T06:50:27;95322.31;;;23.80;38.53
22389;BME280;11362;48.102;11.620;2023-03-21T06:52:52;95325.06;;;23.80;38.51
22389;BME280;11362;48.102;11.620;2023-03-21T06:55:17;95330.25;;;23.78;38.35
22389;BME280;11362;48.102;11.620;2023-03-21T06:57:43;95335.06;;;23.74;38.27
22389;BME280;11362;48.102;11.620;2023-03-21T07:00:08;95334.28;;;23.74;38.04
22389;BME280;11362;48.102;11.620;2023-03-21T07:02:34;95335.06;;;23.74;37.90
22389;BME280;11362;48.102;11.620;2023-03-21T07:04:59;95327.94;;;23.73;37.92
22389;BME280;11362;48.102;11.620;2023-03-21T07:07:25;95338.25;;;23.73;37.82
22389;BME280;11362;48.102;11.620;2023-03-21T07:09:50;95331.91;;;23.72;37.80
22389;BME280;11362;48.102;11.620;2023-03-21T07:12:15;95355.69;;;23.73;37.86
22389;BME280;11362;48.102;11.620;2023-03-21T07:14:41;95326.38;;;23.72;37.82
22389;BME280;11362;48.102;11.620;2023-03-21T07:17:06;95331.56;;;23.70;37.27
22389;BME280;11362;48.102;11.620;2023-03-21T07:19:31;95330.34;;;23.71;37.17
22389;BME280;11362;48.102;11.620;2023-03-21T07:21:56;95327.19;;;23.69;37.29
22389;BME280;11362;48.102;11.620;2023-03-21T07:24:22;95358.09;;;23.71;37.28
22389;BME280;11362;48.102;11.620;2023-03-21T07:26:47;95359.28;;;23.70;37.23
22389;BME280;11362;48.102;11.620;2023-03-21T07:29:12;95362.06;;;23.70;37.21
22389;BME280;11362;48.102;11.620;2023-03-21T07:31:38;95356.53;;;23.70;36.98
22389;BME280;11362;48.102;11.620;2023-03-21T07:34:03;95358.91;;;23.68;37.11
22389;BME280;11362;48.102;11.620;2023-03-21T07:36:28;95357.69;;;23.69;37.23
22389;BME280;11362;48.102;11.620;2023-03-21T07:38:54;95352.63;;;23.64;37.17
22389;BME280;11362;48.102;11.620;2023-03-21T07:41:19;95369.19;;;23.71;37.02
22389;BME280;11362;48.102;11.620;2023-03-21T07:43:44;95366.03;;;23.69;37.05
22389;BME280;11362;48.102;11.620;2023-03-21T07:46:10;95367.19;;;23.72;37.03
22389;BME280;11362;48.102;11.620;2023-03-21T07:48:35;95363.25;;;23.69;37.07
22389;BME280;11362;48.102;11.620;2023-03-21T07:51:00;95363.25;;;23.69;37.07
22389;BME280;11362;48.102;11.620;2023-03-21T07:53:26;95358.13;;;23.68;37.25
22389;BME280;11362;48.102;11.620;2023-03-21T07:55:52;95334.34;;;23.70;37.03
22389;BME280;11362;48.102;11.620;2023-03-21T07:58:18;95331.97;;;23.69;37.20
22389;BME280;11362;48.102;11.620;2023-03-21T08:00:43;95331.91;;;23.72;37.17
22389;BME280;11362;48.102;11.620;2023-03-21T08:03:09;95328.78;;;23.70;37.06
22389;BME280;11362;48.102;11.620;2023-03-21T08:05:36;95323.25;;;23.70;37.18
22389;BME280;11362;48.102;11.620;2023-03-21T08:08:02;95322.03;;;23.71;37.20
22389;BME280;11362;48.102;11.620;2023-03-21T08:10:28;95329.16;;;23.72;37.25
22389;BME280;11362;48.102;11.620;2023-03-21T08:12:53;95330.72;;;23.73;37.62
22389;BME280;11362;48.102;11.620;2023-03-21T08:15:18;95330.72;;;23.73;37.36
22389;BME280;11362;48.102;11.620;2023-03-21T08:17:44;95334.28;;;23.74;37.42
22389;BME280;11362;48.102;11.620;2023-03-21T08:20:11;95335.84;;;23.75;37.31
22389;BME280;11362;48.102;11.620;2023-03-21T08:22:37;95335.41;;;23.76;37.39
22389;BME280;11362;48.102;11.620;2023-03-21T08:25:04;95336.63;;;23.75;37.15
22389;BME280;11362;48.102;11.620;2023-03-21T08:27:31;95332.66;;;23.76;37.39
22389;BME280;11362;48.102;11.620;2023-03-21T08:29:57;95325.53;;;23.75;37.43
22389;BME280;11362;48.102;11.620;2023-03-21T08:32:22;95329.47;;;23.78;37.54
22389;BME280;11362;48.102;11.620;2023-03-21T08:34:48;95326.28;;;23.79;37.67
22389;BME280;11362;48.102;11.620;2023-03-21T08:37:13;95321.50;;;23.80;37.58
22389;BME280;11362;48.102;11.620;2023-03-21T08:39:38;95322.72;;;23.79;37.50
22389;BME280;11362;48.102;11.620;2023-03-21T08:42:03;95313.97;;;23.80;37.53
22389;BME280;11362;48.102;11.620;2023-03-21T08:44:29;95319.13;;;23.82;37.49
22389;BME280;11362;48.102;11.620;2023-03-21T08:46:54;95321.50;;;23.80;37.48
22389;BME280;11362;48.102;11.620;2023-03-21T08:49:19;95320.31;;;23.81;37.95
22389;BME280;11362;48.102;11.620;2023-03-21T08:51:45;95323.88;;;23.81;37.59
22389;BME280;11362;48.102;11.620;2023-03-21T08:54:20;95323.88;;;23.81;37.68
22389;BME280;11362;48.102;11.620;2023-03-21T08:56:46;95332.19;;;23.81;37.60
22389;BME280;11362;48.102;11.620;2023-03-21T08:59:11;95321.09;;;23.81;37.36
22389;BME280;11362;48.102;11.620;2023-03-21T09:01:36;95321.88;;;23.82;37.46
22389;BME280;11362;48.102;11.620;2023-03-21T09:04:02;95314.72;;;23.84;37.35
22389;BME280;11362;48.102;11.620;2023-03-21T09:06:27;95290.53;;;23.85;37.34
22389;BME280;11362;48.102;11.620;2023-03-21T09:08:52;95281.84;;;23.83;37.18
22389;BME280;11362;48.102;11.620;2023-03-21T09:11:18;95308.78;;;23.82;37.54
22389;BME280;11362;48.102;11.620;2023-03-21T09:13:43;95306.41;;;23.84;37.21
22389;BME280;11362;48.102;11.620;2023-03-21T09:16:08;95300.09;;;23.80;37.26
22389;BME280;11362;48.102;11.620;2023-03-21T09:18:34;95305.25;;;23.82;37.27
22389;BME280;11362;48.102;11.620;2023-03-21T09:20:59;95297.69;;;23.82;37.19
22389;BME280;11362;48.102;11.620;2023-03-21T09:23:25;95303.25;;;23.82;37.29
22389;BME280;11362;48.102;11.620;2023-03-21T09:25:50;95301.69;;;23.81;37.26
22389;BME280;11362;48.102;11.620;2023-03-21T09:28:15;95306.41;;;23.84;37.12
22389;BME280;11362;48.102;11.620;2023-03-21T09:30:41;95268.75;;;23.83;37.12
22389;BME280;11362;48.102;11.620;2023-03-21T09:33:08;95278.66;;;23.84;37.15
22389;BME280;11362;48.102;11.620;2023-03-21T09:35:33;95295.31;;;23.84;37.12
22389;BME280;11362;48.102;11.620;2023-03-21T09:37:59;95294.91;;;23.82;37.15
22389;BME280;11362;48.102;11.620;2023-03-21T09:40:55;95297.69;;;23.86;37.08
22389;BME280;11362;48.102;11.620;2023-03-21T09:46:05;95286.94;;;23.88;36.96
22389;BME280;11362;48.102;11.620;2023-03-21T09:48:48;95299.25;;;23.87;36.93
22389;BME280;11362;48.102;11.620;2023-03-21T09:51:15;95298.47;;;23.86;37.01
22389;BME280;11362;48.102;11.620;2023-03-21T09:53:42;95298.47;;;23.86;37.04
22389;BME280;11362;48.102;11.620;2023-03-21T09:56:09;95297.25;;;23.87;36.87
22389;BME280;11362;48.102;11.620;2023-03-21T09:58:39;95292.13;;;23.86;37.05
22389;BME280;11362;48.102;11.620;2023-03-21T10:01:12;95294.50;;;23.87;36.86
22389;BME280;11362;48.102;11.620;2023-03-21T10:03:39;95291.72;;;23.87;36.83
22389;BME280;11362;48.102;11.620;2023-03-21T10:06:14;95296.06;;;23.85;36.94
22389;BME280;11362;48.102;11.620;2023-03-21T10:08:40;95292.13;;;23.86;37.01
22389;BME280;11362;48.102;11.620;2023-03-21T10:13:55;95288.56;;;23.85;37.01
22389;BME280;11362;48.102;11.620;2023-03-21T10:16:30;95286.16;;;23.87;36.88
22389;BME280;11362;48.102;11.620;2023-03-21T10:18:58;95284.16;;;23.88;36.90
22389;BME280;11362;48.102;11.620;2023-03-21T10:21:27;95276.28;;;23.86;36.79
22389;BME280;11362;48.102;11.620;2023-03-21T10:23:54;95275.44;;;23.89;36.87
22389;BME280;11362;48.102;11.620;2023-03-21T10:26:26;95273.88;;;23.88;36.82
22389;BME280;11362;48.102;11.620;2023-03-21T10:28:54;95281.38;;;23.88;36.80
22389;BME280;11362;48.102;11.620;2023-03-21T10:31:23;95277.00;;;23.90;36.78
22389;BME280;11362;48.102;11.620;2023-03-21T10:33:51;95261.91;;;23.91;36.71
22389;BME280;11362;48.102;11.620;2023-03-21T10:36:23;95270.63;;;23.93;36.72
22389;BME280;11362;48.102;11.620;2023-03-21T10:39:01;95266.66;;;23.94;36.74
22389;BME280;11362;48.102;11.620;2023-03-21T10:41:27;95264.63;;;23.95;36.82
22389;BME280;11362;48.102;11.620;2023-03-21T10:44:14;95263.47;;;23.96;36.70
22389;BME280;11362;48.102;11.620;2023-03-21T10:46:55;95261.03;;;23.98;36.63
22389;BME280;11362;48.102;11.620;2023-03-21T10:49:21;95256.69;;;23.97;36.68
22389;BME280;11362;48.102;11.620;2023-03-21T10:51:50;95257.84;;;23.99;36.67
22389;BME280;11362;48.102;11.620;2023-03-21T10:54:21;95251.91;;;23.97;36.70
22389;BME280;11362;48.102;11.620;2023-03-21T10:57:19;95252.72;;;23.98;36.64
22389;BME280;11362;48.102;11.620;2023-03-21T10:59:52;95252.31;;;23.99;36.61
22389;BME280;11362;48.102;11.620;2023-03-21T11:02:39;95243.97;;;23.99;36.65
22389;BME280;11362;48.102;11.620;2023-03-21T11:05:07;95233.25;;;24.01;36.44
22389;BME280;11362;48.102;11.620;2023-03-21T11:07:36;95237.94;;;24.04;36.43
22389;BME280;11362;48.102;11.620;2023-03-21T11:10:13;95234.00;;;24.02;36.46
22389;BME280;11362;48.102;11.620;2023-03-21T11:12:40;95232.03;;;24.02;36.44
22389;BME280;11362;48.102;11.620;2023-03-21T11:18:14;95231.63;;;24.04;36.55
22389;BME280;11362;48.102;11.620;2023-03-21T11:20:48;95232.03;;;24.02;36.51
22389;BME280;11362;48.102;11.620;2023-03-21T11:23:13;95230.81;;;24.03;36.45
22389;BME280;11362;48.102;11.620;2023-03-21T11:25:41;95227.28;;;24.03;36.56
22389;BME280;11362;48.102;11.620;2023-03-21T11:28:19;95220.06;;;24.05;36.53
22389;BME280;11362;48.102;11.620;2023-03-21T11:30:56;95208.56;;;24.07;36.44
22389;BME280;11362;48.102;11.620;2023-03-21T11:33:27;95213.69;;;24.08;36.43
22389;BME280;11362;48.102;11.620;2023-03-21T11:38:43;95207.69;;;24.13;37.21
22389;BME280;11362;48.102;11.620;2023-03-21T11:41:30;95202.84;;;24.17;37.17
22389;BME280;11362;48.102;11.620;2023-03-21T11:43:57;95196.47;;;24.20;37.19
22389;BME280;11362;48.102;11.620;2023-03-21T11:46:28;95197.63;;;24.19;37.26
22389;BME280;11362;48.102;11.620;2023-03-21T11:48:55;95188.47;;;24.22;37.39
22389;BME280;11362;48.102;11.620;2023-03-21T11:56:41;95178.22;;;24.19;37.66
22389;BME280;11362;48.102;11.620;2023-03-21T12:04:53;95167.91;;;24.20;37.40
22389;BME280;11362;48.102;11.620;2023-03-21T12:07:32;95161.22;;;24.17;37.46
22389;BME280;11362;48.102;11.620;2023-03-21T12:12:44;95156.88;;;24.16;37.41
22389;BME280;11362;48.102;11.620;2023-03-21T12:15:43;95143.41;;;24.15;37.45
22389;BME280;11362;48.102;11.620;2023-03-21T12:21:10;95147.75;;;24.16;37.51
22389;BME280;11362;48.102;11.620;2023-03-21T12:28:41;95133.44;;;24.17;37.32
22389;BME280;11362;48.102;11.620;2023-03-21T12:31:26;95130.69;;;24.17;37.40
22389;BME280;11362;48.102;11.620;2023-03-21T12:34:18;95127.50;;;24.19;37.27
22389;BME280;11362;48.102;11.620;2023-03-21T12:39:34;95128.25;;;24.19;37.48
22389;BME280;11362;48.102;11.620;2023-03-21T12:42:54;95124.28;;;24.20;37.35
22389;BME280;11362;48.102;11.620;2023-03-21T12:45:04;95118.75;;;24.20;37.36
22389;BME280;11362;48.102;11.620;2023-03-21T12:47:34;95123.09;;;24.21;37.31
22389;BME280;11362;48.102;11.620;2023-03-21T12:50:17;95124.19;;;24.24;37.36
22389;BME280;11362;48.102;11.620;2023-03-21T12:52:49;95115.09;;;24.23;37.17
22389;BME280;11362;48.102;11.620;2023-03-21T12:55:24;95108.34;;;24.24;37.29
22389;BME280;11362;48.102;11.620;2023-03-21T12:58:00;95113.09;;;24.24;37.12
22389;BME280;11362;48.102;11.620;2023-03-21T13:00:35;95125.78;;;24.25;37.25
22389;BME280;11362;48.102;11.620;2023-03-21T13:03:11;95118.22;;;24.25;37.12
22389;BME280;11362;48.102;11.620;2023-03-21T13:05:49;95119.38;;;24.28;37.08
22389;BME280;11362;48.102;11.620;2023-03-21T13:08:32;95111.84;;;24.28;37.40
22389;BME280;11362;48.102;11.620;2023-03-21T13:11:00;95082.50;;;24.27;37.23
22389;BME280;11362;48.102;11.620;2023-03-21T13:13:49;95077.31;;;24.29;37.11
22389;BME280;11362;48.102;11.620;2023-03-21T13:21:23;95083.72;;;24.26;37.18
22389;BME280;11362;48.102;11.620;2023-03-21T13:24:04;95082.81;;;24.33;37.11
22389;BME280;11362;48.102;11.620;2023-03-21T13:26:37;95072.47;;;24.33;36.94
22389;BME280;11362;48.102;11.620;2023-03-21T13:29:25;95068.56;;;24.31;37.28
22389;BME280;11362;48.102;11.620;2023-03-21T13:31:53;95064.66;;;24.28;36.97
22389;BME280;11362;48.102;11.620;2023-03-21T13:34:23;95063.06;;;24.27;36.98
22389;BME280;11362;48.102;11.620;2023-03-21T13:36:50;95063.06;;;24.27;37.03
22389;BME280;11362;48.102;11.620;2023-03-21T13:39:23;95054.75;;;24.27;37.14
22389;BME280;11362;48.102;11.620;2023-03-21T13:41:49;95057.53;;;24.27;37.04
22389;BME280;11362;48.102;11.620;2023-03-21T13:44:18;95051.97;;;24.27;37.12
22389;BME280;11362;48.102;11.620;2023-03-21T13:46:52;95053.56;;;24.28;37.04
22389;BME280;11362;48.102;11.620;2023-03-21T13:49:36;95056.34;;;24.28;37.07
22389;BME280;11362;48.102;11.620;2023-03-21T13:52:26;95053.56;;;24.28;37.05
22389;BME280;11362;48.102;11.620;2023-03-21T13:54:56;95048.00;;;24.28;37.09
22389;BME280;11362;48.102;11.620;2023-03-21T14:02:51;95034.47;;;24.30;37.17
22389;BME280;11362;48.102;11.620;2023-03-21T14:05:20;95037.94;;;24.34;36.92
22389;BME280;11362;48.102;11.620;2023-03-21T14:07:51;95038.41;;;24.33;37.02
22389;BME280;11362;48.102;11.620;2023-03-21T14:10:22;95045.09;;;24.35;37.02